createdAt,value
2018-05-29T00:00:04.759Z,963.55
2018-05-29T00:15:05.356Z,963.69
2018-05-29T00:30:04.853Z,963.35
2018-05-29T00:45:04.963Z,963.11
2018-05-29T01:00:05.097Z,963.35
2018-05-29T01:15:04.848Z,963.41
2018-05-29T01:30:05.722Z,963.8
2018-05-29T01:45:05.460Z,956.9
2018-05-29T02:00:04.943Z,957.34
2018-05-29T02:15:04.711Z,964.27
2018-05-29T02:30:05.434Z,957.84
2018-05-29T02:45:10.310Z,957.94
2018-05-29T03:00:05.012Z,958.3
2018-05-29T03:15:05.202Z,958.66
2018-05-29T03:30:10.504Z,958.93
2018-05-29T03:45:05.148Z,958.88
2018-05-29T04:00:05.341Z,958.82
2018-05-29T04:15:10.001Z,959.37
2018-05-29T04:30:04.932Z,960.28
2018-05-29T04:45:04.647Z,960.52
2018-05-29T05:00:05.256Z,960.22
2018-05-29T05:15:04.821Z,960.33
2018-05-29T05:30:04.762Z,960.44
2018-05-29T05:45:05.445Z,960.99
2018-05-29T06:00:04.455Z,961.16
2018-05-29T06:15:04.838Z,961.48
2018-05-29T06:30:05.049Z,961.48
2018-05-29T06:45:05.564Z,961.4
2018-05-29T07:00:04.608Z,961.46
2018-05-29T07:15:04.540Z,961.07
2018-05-29T07:30:04.678Z,960.63
2018-05-29T07:45:05.577Z,960.5
2018-05-29T08:00:04.486Z,959.59
2018-05-29T08:15:04.393Z,959.29
2018-05-29T08:30:04.546Z,959.45
2018-05-29T08:45:04.472Z,959.59
2018-05-29T09:00:04.382Z,960.41
2018-05-29T09:15:05.294Z,960.09
2018-05-29T09:30:04.440Z,959.89
2018-05-29T09:45:04.408Z,959.59
2018-05-29T10:00:05.560Z,960.03
2018-05-29T10:15:05.143Z,959.32
2018-05-29T10:30:04.880Z,959.73
2018-05-29T10:45:04.404Z,959.26
2018-05-29T11:00:05.308Z,959.56
2018-05-29T11:15:05.808Z,958.99
2018-05-29T11:30:04.936Z,965.4
2018-05-29T11:45:04.964Z,965.57
2018-05-29T12:00:04.573Z,964.93
2018-05-29T12:15:05.039Z,964.41
2018-05-29T12:30:05.504Z,964.54
2018-05-29T12:45:04.466Z,963.74
2018-05-29T13:00:04.405Z,963.19
2018-05-29T13:15:14.979Z,962.52
2018-05-29T13:30:04.619Z,962.52
2018-05-29T13:45:05.121Z,962.41
2018-05-29T14:00:04.544Z,962.03
2018-05-29T14:15:05.035Z,962.14
2018-05-29T14:30:05.180Z,962.03
2018-05-29T14:45:04.652Z,962.03
2018-05-29T15:00:05.247Z,962
2018-05-29T15:15:05.253Z,961.53
2018-05-29T15:30:05.533Z,961.47
2018-05-29T15:45:05.495Z,961.45
2018-05-29T16:00:05.136Z,960.89
2018-05-29T16:15:05.106Z,961.06
2018-05-29T16:30:04.950Z,960.78
2018-05-29T16:45:04.915Z,960.81
2018-05-29T17:00:05.552Z,960.51
2018-05-29T17:15:05.516Z,960.62
2018-05-29T17:30:05.532Z,960.56
2018-05-29T17:45:09.612Z,961.11
2018-05-29T18:00:05.340Z,962.3
2018-05-29T18:15:05.101Z,961.53
2018-05-29T18:30:04.844Z,961.25
2018-05-29T18:45:05.098Z,961.42
2018-05-29T19:00:05.055Z,961.53
2018-05-29T19:15:05.554Z,961.97
2018-05-29T19:30:06.608Z,962.75
2018-05-29T19:45:04.591Z,963.24
2018-05-29T20:00:05.306Z,963.55
2018-05-29T20:15:05.182Z,964.05
2018-05-29T20:30:05.849Z,964.38
2018-05-29T20:45:05.312Z,964.54
2018-05-29T21:00:05.060Z,957.56
2018-05-29T21:15:05.430Z,958.14
2018-05-29T21:30:05.736Z,958.6
2018-05-29T21:45:05.820Z,958.3
2018-05-29T22:00:10.273Z,958.36
2018-05-29T22:15:05.358Z,958.74
2018-05-29T22:30:05.153Z,959.18
2018-05-29T22:45:04.846Z,959.04
2018-05-29T23:00:04.973Z,959.34
2018-05-29T23:15:04.705Z,959.59
2018-05-29T23:30:10.139Z,959.95
2018-05-29T23:45:05.461Z,960.09
